Terminal Aerodrome Forecast
Issued by NWS

Home | Current Version | Previous Version | Text Only | Print | Product List | Glossary On
Versions: 1 2 3 4 5 6 7 8 9 10 11 12 13 14 15 16 17 18 19
000
FTUS41 KBGM 232327
TAFRME
TAF
KRME 232327Z 2400/2424 VRB03KT P6SM SCT250
     FM240600 11007KT P6SM OVC120
     FM240900 12007KT P6SM BKN050 OVC100 WS020/20030KT
     FM241200 12007KT 4SM -SNPL BR OVC025 WS020/20030KT
      TEMPO 2413/2416 2SM -FZRA BR OVC015
     FM241600 13008KT 5SM -RA BR OVC010 WS020/20035KT=

USA.gov is the U.S. government's official web portal to all federal, state and local government web resources and services.